createdAt,value
2019-02-14T00:01:09.688Z,49.1
2019-02-14T00:06:05.881Z,49.4
2019-02-14T00:11:02.018Z,49.2
2019-02-14T00:15:58.350Z,49.4
2019-02-14T00:20:54.512Z,49.5
2019-02-14T00:25:50.908Z,49.4
2019-02-14T00:30:46.922Z,49.8
2019-02-14T00:35:43.306Z,49.7
2019-02-14T00:40:39.797Z,49.9
2019-02-14T00:45:36.077Z,50.1
2019-02-14T00:50:32.321Z,50.3
2019-02-14T00:55:28.598Z,50.5
2019-02-14T01:00:24.408Z,51
2019-02-14T01:05:20.683Z,51.1
2019-02-14T01:10:16.851Z,51.3
2019-02-14T01:15:13.190Z,52
2019-02-14T01:20:08.895Z,52.2
2019-02-14T01:25:05.134Z,52.5
2019-02-14T01:30:01.057Z,52.7
2019-02-14T01:34:57.392Z,53.3
2019-02-14T01:39:53.631Z,53.5
2019-02-14T01:44:49.822Z,53.9
2019-02-14T01:49:46.121Z,54.2
2019-02-14T01:54:42.429Z,54.6
2019-02-14T01:59:38.089Z,55.3
2019-02-14T02:04:34.446Z,55.9
2019-02-14T02:09:30.528Z,56
2019-02-14T02:14:26.777Z,56.8
2019-02-14T02:19:22.613Z,56.9
2019-02-14T02:24:18.121Z,57.2
2019-02-14T02:29:14.282Z,57.4
2019-02-14T02:34:10.512Z,57.5
2019-02-14T02:39:06.359Z,57.5
2019-02-14T02:48:58.533Z,58
2019-02-14T02:53:54.936Z,57.9
2019-02-14T02:58:50.931Z,57.9
2019-02-14T03:03:47.297Z,57.9
2019-02-14T03:08:43.746Z,58.3
2019-02-14T03:13:39.952Z,58.1
2019-02-14T03:18:35.804Z,58.2
2019-02-14T03:23:32.167Z,57.9
2019-02-14T03:28:28.356Z,57.6
2019-02-14T03:33:24.559Z,57.5
2019-02-14T03:38:20.386Z,57.5
2019-02-14T03:43:16.790Z,57.6
2019-02-14T03:48:12.661Z,57.5
2019-02-14T03:53:08.869Z,57.4
2019-02-14T03:58:04.990Z,57.3
2019-02-14T04:03:01.222Z,57.5
2019-02-14T04:07:57.281Z,57.1
2019-02-14T04:12:53.635Z,57
2019-02-14T04:17:50.011Z,56.8
2019-02-14T04:22:46.303Z,56.8
2019-02-14T04:27:42.197Z,56.9
2019-02-14T04:32:38.657Z,56.7
2019-02-14T04:37:34.946Z,56.9
2019-02-14T04:42:31.037Z,56.4
2019-02-14T04:47:27.427Z,56.5
2019-02-14T04:52:23.768Z,56.6
2019-02-14T04:57:19.952Z,55.9
2019-02-14T05:02:16.048Z,56.1
2019-02-14T05:07:11.952Z,55.9
2019-02-14T05:12:08.161Z,56.1
2019-02-14T05:17:04.261Z,56.2
2019-02-14T05:22:00.385Z,55.3
2019-02-14T05:26:56.893Z,55
2019-02-14T05:31:53.047Z,55.3
2019-02-14T05:36:52.806Z,54.9
2019-02-14T05:41:44.991Z,54.5
2019-02-14T05:46:40.744Z,54.6
2019-02-14T05:51:37.220Z,54.1
2019-02-14T05:56:33.355Z,54.1
2019-02-14T06:01:29.137Z,53.7
2019-02-14T06:06:24.946Z,53.7
2019-02-14T06:11:21.058Z,53.7
2019-02-14T06:16:16.847Z,53.8
2019-02-14T06:21:13.798Z,53.7
2019-02-14T06:26:09.516Z,53.7
2019-02-14T06:31:04.656Z,53.9
2019-02-14T06:36:00.750Z,54.1
2019-02-14T06:40:56.908Z,54.4
2019-02-14T06:45:52.886Z,54.5
2019-02-14T06:50:49.107Z,54.8
2019-02-14T06:55:45.013Z,54.3
2019-02-14T07:00:38.090Z,54.3
2019-02-14T07:05:34.162Z,54.3
2019-02-14T07:10:30.384Z,54.4
2019-02-14T07:15:26.462Z,54.7
2019-02-14T07:20:22.760Z,55.2
2019-02-14T07:25:18.718Z,55.2
2019-02-14T07:30:14.851Z,55.8
2019-02-14T07:35:10.742Z,56
2019-02-14T07:40:07.170Z,56.2
2019-02-14T07:45:03.112Z,56.3
2019-02-14T07:49:59.530Z,56
2019-02-14T07:54:55.924Z,55.9
2019-02-14T07:59:52.551Z,56
2019-02-14T08:04:48.804Z,56.2
2019-02-14T08:09:45.776Z,55.8
2019-02-14T08:14:41.752Z,55.8
2019-02-14T08:19:37.675Z,55.8
2019-02-14T08:24:34.033Z,56.1
2019-02-14T08:29:30.185Z,55.8
2019-02-14T08:34:26.492Z,55.8
2019-02-14T08:39:23.022Z,55.6
2019-02-14T08:44:19.174Z,55.6
2019-02-14T08:49:15.740Z,55.1
2019-02-14T08:54:09.539Z,55.1
2019-02-14T08:59:05.283Z,55.3
2019-02-14T09:04:01.722Z,55.6
2019-02-14T09:08:58.054Z,55.3
2019-02-14T09:13:53.735Z,55.2
2019-02-14T09:18:50.072Z,55.1
2019-02-14T09:23:46.163Z,54.5
2019-02-14T09:28:42.585Z,54.3
2019-02-14T09:38:35.289Z,53.9
2019-02-14T09:43:31.824Z,53.8
2019-02-14T09:48:28.337Z,53.7
2019-02-14T09:53:24.671Z,53
2019-02-14T09:58:22.577Z,51.9
2019-02-14T10:03:16.773Z,51.1
2019-02-14T10:08:13.352Z,50.8
2019-02-14T10:13:09.618Z,51
2019-02-14T10:18:05.925Z,51.2
2019-02-14T10:23:02.305Z,50
2019-02-14T10:27:58.923Z,49
2019-02-14T10:32:55.213Z,48.2
2019-02-14T10:37:51.820Z,48.4
2019-02-14T10:42:48.135Z,48.8
2019-02-14T10:47:44.806Z,48.2
2019-02-14T10:52:40.793Z,46.6
2019-02-14T10:57:37.185Z,47
2019-02-14T11:02:33.067Z,47.1
2019-02-14T11:07:29.635Z,47.8
2019-02-14T11:12:25.989Z,47.3
2019-02-14T11:17:22.569Z,48.4
2019-02-14T11:22:18.847Z,48.4
2019-02-14T11:27:14.954Z,49
2019-02-14T11:32:11.455Z,47.8
2019-02-14T11:37:07.978Z,47.1
2019-02-14T11:42:04.253Z,48.1
2019-02-14T11:47:00.782Z,47.6
2019-02-14T11:51:56.884Z,48.2
2019-02-14T11:56:53.240Z,48.6
2019-02-14T12:01:55.112Z,48.5
2019-02-14T12:06:45.456Z,48.5
2019-02-14T12:11:41.712Z,48.8
2019-02-14T12:16:38.238Z,48.1
2019-02-14T12:21:34.369Z,47.4
2019-02-14T12:26:30.750Z,47.8
2019-02-14T12:31:26.951Z,48.9
2019-02-14T12:36:23.379Z,49
2019-02-14T12:41:19.619Z,49.5
2019-02-14T12:46:15.993Z,50.6
2019-02-14T12:51:12.534Z,51
2019-02-14T12:56:08.930Z,51.1
2019-02-14T13:01:04.983Z,51.3
2019-02-14T13:06:01.384Z,51.5
2019-02-14T13:10:57.450Z,52.1
2019-02-14T13:15:53.963Z,52.7
2019-02-14T13:20:50.286Z,52.9
2019-02-14T13:25:46.124Z,52.7
2019-02-14T13:30:42.103Z,53
2019-02-14T13:35:38.476Z,53.1
2019-02-14T13:40:35.072Z,53.5
2019-02-14T13:45:31.504Z,53.4
2019-02-14T13:50:27.812Z,53.8
2019-02-14T13:55:24.087Z,54.2
2019-02-14T14:00:20.027Z,54.7
2019-02-14T14:05:16.427Z,54.9
2019-02-14T14:10:12.509Z,55.3
2019-02-14T14:15:08.367Z,55.3
2019-02-14T14:20:04.487Z,55.6
2019-02-14T14:25:00.856Z,55.7
2019-02-14T14:29:58.740Z,56.1
2019-02-14T14:34:52.879Z,56.1
2019-02-14T14:39:49.131Z,56.2
2019-02-14T14:44:45.236Z,56.3
2019-02-14T14:49:41.319Z,56.4
2019-02-14T14:54:37.715Z,56.6
2019-02-14T14:59:34.010Z,56.9
2019-02-14T15:04:30.192Z,57.1
2019-02-14T15:09:26.435Z,57.3
2019-02-14T15:14:22.897Z,57.3
2019-02-14T15:19:18.980Z,57.3
2019-02-14T15:24:15.047Z,57.7
2019-02-14T15:29:11.349Z,57.5
2019-02-14T15:34:07.589Z,57.7
2019-02-14T15:39:03.821Z,57.9
2019-02-14T15:44:00.136Z,58.1
2019-02-14T15:48:56.458Z,58.1
2019-02-14T15:53:52.115Z,58.2
2019-02-14T15:58:48.323Z,58.3
2019-02-14T16:03:44.902Z,58.3
2019-02-14T16:08:41.016Z,58.2
2019-02-14T16:18:33.971Z,58.3
2019-02-14T16:23:31.905Z,58.6
2019-02-14T16:28:26.965Z,58.6
2019-02-14T16:33:23.594Z,58.6
2019-02-14T16:38:19.367Z,58.7
2019-02-14T16:43:15.860Z,59
2019-02-14T16:48:11.480Z,59.1
2019-02-14T16:53:07.681Z,59.3
2019-02-14T16:58:04.126Z,59.5
2019-02-14T17:03:00.173Z,59.9
2019-02-14T17:07:56.458Z,60.1
2019-02-14T17:12:52.634Z,60.2
2019-02-14T17:17:48.855Z,60.6
2019-02-14T17:22:44.755Z,60.9
2019-02-14T17:27:40.985Z,61.1
2019-02-14T17:32:36.963Z,61.3
2019-02-14T17:37:33.253Z,61.5
2019-02-14T17:42:29.731Z,61.7
2019-02-14T17:47:25.760Z,61.8
2019-02-14T17:52:22.026Z,61.8
2019-02-14T17:57:18.439Z,61.8
2019-02-14T18:02:14.805Z,61.8
2019-02-14T18:07:10.891Z,62
2019-02-14T18:12:07.203Z,62
2019-02-14T18:17:03.523Z,62.2
2019-02-14T18:21:59.757Z,62.1
2019-02-14T18:26:55.989Z,62.1
2019-02-14T18:31:51.882Z,62.2
2019-02-14T18:36:48.185Z,62.1
2019-02-14T18:41:44.620Z,62.1
2019-02-14T18:46:40.979Z,62
2019-02-14T18:51:37.631Z,61.9
2019-02-14T18:56:34.002Z,61.8
2019-02-14T19:01:30.477Z,61.8
2019-02-14T19:06:26.533Z,61.8
2019-02-14T19:11:22.905Z,61.7
2019-02-14T19:16:18.912Z,61.7
2019-02-14T19:21:14.946Z,61.7
2019-02-14T19:26:11.453Z,61.6
2019-02-14T19:31:07.709Z,61.7
2019-02-14T19:36:03.647Z,61.8
2019-02-14T19:40:59.914Z,61.8
2019-02-14T19:45:56.314Z,61.7
2019-02-14T19:50:52.542Z,61.4
2019-02-14T19:55:48.876Z,61.4
2019-02-14T20:00:45.331Z,61.4
2019-02-14T20:05:41.494Z,61.6
2019-02-14T20:10:37.887Z,61.5
2019-02-14T20:15:36.958Z,61.5
2019-02-14T20:20:30.839Z,61.5
2019-02-14T20:25:27.357Z,61.6
2019-02-14T20:30:21.997Z,61.6
2019-02-14T20:35:18.259Z,61.4
2019-02-14T20:40:14.546Z,61.2
2019-02-14T20:45:10.582Z,60.9
2019-02-14T20:50:06.669Z,60.9
2019-02-14T20:55:03.004Z,61.1
2019-02-14T20:59:59.415Z,60.9
2019-02-14T21:04:55.751Z,60.8
2019-02-14T21:09:52.260Z,60.6
2019-02-14T21:14:48.824Z,60.6
2019-02-14T21:19:45.152Z,60.6
2019-02-14T21:24:41.684Z,60.6
2019-02-14T21:29:37.939Z,60.5
2019-02-14T21:34:34.352Z,60.5
2019-02-14T21:39:30.833Z,60.5
2019-02-14T21:44:27.045Z,60.7
2019-02-14T21:49:23.689Z,60.4
2019-02-14T21:54:19.845Z,60.4
2019-02-14T21:59:16.372Z,60.3
2019-02-14T22:04:12.638Z,60.4
2019-02-14T22:09:09.061Z,60.4
2019-02-14T22:14:05.350Z,60.3
2019-02-14T22:19:02.028Z,60.4
2019-02-14T22:23:58.472Z,60.5
2019-02-14T22:28:54.592Z,60.6
2019-02-14T22:33:50.716Z,60.6
2019-02-14T22:38:47.196Z,60.7
2019-02-14T22:43:43.512Z,60.8
2019-02-14T22:48:39.941Z,60.8
2019-02-14T22:53:36.296Z,61
2019-02-14T22:58:32.719Z,60.9
2019-02-14T23:03:29.656Z,60.9
2019-02-14T23:08:25.960Z,60.9
2019-02-14T23:13:22.240Z,60.5
2019-02-14T23:18:18.638Z,60.4
2019-02-14T23:23:14.959Z,60.4
2019-02-14T23:28:11.475Z,60.6
2019-02-14T23:33:08.083Z,60.4
2019-02-14T23:38:04.650Z,59.9
2019-02-14T23:43:04.543Z,60.1
2019-02-14T23:47:56.882Z,60
2019-02-14T23:52:53.150Z,60
2019-02-14T23:57:49.741Z,60
